Time;durP1;ratioP1;P1;durP2;ratioP2;P2;SDS_P1;SDS_P2;PMS_P1;PMS_P2;Temp;Humidity;BMP_temperature;BMP_pressure;BME280_temperature;BME280_humidity;BME280_pressure;Samples;Min_cycle;Max_cycle;Signal;HPM_P1;HPM_P2
2021/08/17 00:01:14;;;;;;;10.07;3.63;;;;;;;;;;5070874;28;20546;-87
2021/08/17 00:03:40;;;;;;;8.27;3.63;;;;;;;;;;5089522;28;20853;-84
2021/08/17 00:06:07;;;;;;;10.68;3.90;;;;;;;;;;5089490;28;20715;-85
2021/08/17 00:08:33;;;;;;;9.77;3.70;;;;;;;;;;5071271;28;20379;-87
2021/08/17 00:11:00;;;;;;;11.00;4.00;;;;;;;;;;5071178;28;20372;-85
2021/08/17 00:13:26;;;;;;;11.43;4.03;;;;;;;;;;5089529;28;20442;-84
2021/08/17 00:15:52;;;;;;;10.82;4.07;;;;;;;;;;5071050;28;20377;-84
2021/08/17 00:18:18;;;;;;;12.77;4.10;;;;;;;;;;5088928;28;20372;-84
2021/08/17 00:20:44;;;;;;;8.52;4.15;;;;;;;;;;5071135;28;20766;-85
2021/08/17 00:23:10;;;;;;;8.60;3.83;;;;;;;;;;5088676;28;20376;-86
2021/08/17 00:25:36;;;;;;;10.65;4.07;;;;;;;;;;5072133;28;20370;-85
2021/08/17 00:28:03;;;;;;;8.52;4.03;;;;;;;;;;5071564;28;21141;-85
2021/08/17 00:30:29;;;;;;;12.18;4.10;;;;;;;;;;5071136;28;20935;-86
2021/08/17 00:32:55;;;;;;;12.20;3.85;;;;;;;;;;5088813;28;20364;-86
2021/08/17 00:35:22;;;;;;;11.52;3.97;;;;;;;;;;5089378;28;20427;-84
2021/08/17 00:37:48;;;;;;;6.70;3.23;;;;;;;;;;5073460;28;20383;-85
2021/08/17 00:40:14;;;;;;;9.90;3.90;;;;;;;;;;5093189;28;20455;-86
2021/08/17 00:42:41;;;;;;;8.47;3.77;;;;;;;;;;5074801;28;20368;-87
2021/08/17 00:45:07;;;;;;;9.25;3.88;;;;;;;;;;5074999;28;20750;-86
2021/08/17 00:47:34;;;;;;;10.38;3.92;;;;;;;;;;5093103;28;20471;-86
2021/08/17 00:49:59;;;;;;;9.85;4.22;;;;;;;;;;5092895;28;20695;-88
2021/08/17 00:52:25;;;;;;;9.25;3.58;;;;;;;;;;5092986;28;20379;-85
2021/08/17 00:54:52;;;;;;;9.38;3.53;;;;;;;;;;5074269;28;20522;-86
2021/08/17 00:57:18;;;;;;;8.93;3.90;;;;;;;;;;5074586;28;20410;-87
2021/08/17 00:59:44;;;;;;;8.23;3.50;;;;;;;;;;5074007;28;20392;-88
2021/08/17 01:02:10;;;;;;;9.00;3.80;;;;;;;;;;5074048;28;20753;-85
2021/08/17 01:04:38;;;;;;;8.55;3.80;;;;;;;;;;5092776;28;20373;-86
2021/08/17 01:07:05;;;;;;;9.13;3.65;;;;;;;;;;5092425;28;20364;-85
2021/08/17 01:09:31;;;;;;;10.40;3.85;;;;;;;;;;5092169;28;20373;-86
2021/08/17 01:12:00;;;;;;;9.02;3.75;;;;;;;;;;5074214;28;20455;-86
2021/08/17 01:14:26;;;;;;;9.47;4.03;;;;;;;;;;5092735;28;20372;-85
2021/08/17 01:16:52;;;;;;;9.60;4.27;;;;;;;;;;5092459;28;20361;-84
2021/08/17 01:19:19;;;;;;;11.33;4.23;;;;;;;;;;5074154;28;20472;-85
2021/08/17 01:21:46;;;;;;;10.30;4.38;;;;;;;;;;5074170;28;20400;-86
2021/08/17 01:24:12;;;;;;;9.68;4.10;;;;;;;;;;5073952;28;20381;-86
2021/08/17 01:26:38;;;;;;;8.30;4.22;;;;;;;;;;5073790;28;20798;-86
2021/08/17 01:29:04;;;;;;;11.18;4.45;;;;;;;;;;5073800;28;20894;-84
2021/08/17 01:31:31;;;;;;;11.88;4.15;;;;;;;;;;5091914;28;20371;-86
2021/08/17 01:33:57;;;;;;;9.98;4.10;;;;;;;;;;5073896;28;20369;-84
2021/08/17 01:36:23;;;;;;;7.97;3.55;;;;;;;;;;5092114;28;20377;-87
2021/08/17 01:38:50;;;;;;;10.33;4.00;;;;;;;;;;5091648;28;20407;-86
2021/08/17 01:41:16;;;;;;;11.77;3.95;;;;;;;;;;5091875;28;20897;-87
2021/08/17 01:43:43;;;;;;;9.48;4.05;;;;;;;;;;5092030;28;20377;-87
2021/08/17 01:46:11;;;;;;;8.23;3.97;;;;;;;;;;5091837;28;20365;-86
2021/08/17 01:48:37;;;;;;;9.15;4.13;;;;;;;;;;5090464;28;20450;-87
2021/08/17 01:51:04;;;;;;;13.57;4.10;;;;;;;;;;5092354;28;20372;-86
2021/08/17 01:53:30;;;;;;;8.93;3.83;;;;;;;;;;5092154;28;20368;-83
2021/08/17 01:55:57;;;;;;;10.90;3.85;;;;;;;;;;5091636;28;20810;-86
2021/08/17 01:58:23;;;;;;;8.90;3.72;;;;;;;;;;5091737;28;20373;-84
2021/08/17 02:00:50;;;;;;;8.13;3.58;;;;;;;;;;5091445;28;20399;-87
2021/08/17 02:03:15;;;;;;;9.18;3.50;;;;;;;;;;5091353;28;20390;-84
2021/08/17 02:05:42;;;;;;;8.93;3.60;;;;;;;;;;5091454;28;20725;-85
2021/08/17 02:08:09;;;;;;;8.15;3.40;;;;;;;;;;5091716;28;20373;-81
2021/08/17 02:10:35;;;;;;;8.38;3.72;;;;;;;;;;5073101;28;20424;-87
2021/08/17 02:13:01;;;;;;;10.48;3.90;;;;;;;;;;5073627;28;20884;-87
2021/08/17 02:15:27;;;;;;;9.48;3.63;;;;;;;;;;5091081;28;20442;-84
2021/08/17 02:17:53;;;;;;;8.85;3.75;;;;;;;;;;5072596;28;20870;-87
2021/08/17 02:20:19;;;;;;;9.88;3.80;;;;;;;;;;5072712;28;20400;-82
2021/08/17 02:22:45;;;;;;;11.90;3.22;;;;;;;;;;5091828;28;20383;-79
2021/08/17 02:25:11;;;;;;;8.15;3.60;;;;;;;;;;5073055;28;20384;-83
2021/08/17 02:27:37;;;;;;;9.35;3.55;;;;;;;;;;5072811;28;20472;-85
2021/08/17 02:30:04;;;;;;;6.15;2.97;;;;;;;;;;5090743;28;20377;-88
2021/08/17 02:32:30;;;;;;;10.65;3.22;;;;;;;;;;5072893;28;20372;-82
2021/08/17 02:34:56;;;;;;;10.32;3.60;;;;;;;;;;5090513;28;20398;-83
2021/08/17 02:37:22;;;;;;;8.30;3.17;;;;;;;;;;5090671;28;20384;-84
2021/08/17 02:39:49;;;;;;;10.05;3.60;;;;;;;;;;5090468;28;20434;-84
2021/08/17 02:42:15;;;;;;;10.13;3.30;;;;;;;;;;5090787;28;20396;-86
2021/08/17 02:44:41;;;;;;;11.35;3.75;;;;;;;;;;5072394;28;20391;-87
2021/08/17 02:47:07;;;;;;;9.38;3.67;;;;;;;;;;5072296;28;20928;-84
2021/08/17 02:49:33;;;;;;;10.38;3.30;;;;;;;;;;5090598;28;20479;-87
2021/08/17 02:52:03;;;;;;;11.00;3.67;;;;;;;;;;5090906;28;20417;-85
2021/08/17 02:54:29;;;;;;;10.95;3.75;;;;;;;;;;5072194;28;20385;-86
2021/08/17 02:56:55;;;;;;;10.23;3.50;;;;;;;;;;5071960;28;20430;-84
2021/08/17 02:59:21;;;;;;;9.45;3.50;;;;;;;;;;5090075;28;20371;-81
2021/08/17 03:01:47;;;;;;;8.82;3.42;;;;;;;;;;5071967;28;20886;-84
2021/08/17 03:04:13;;;;;;;10.37;3.40;;;;;;;;;;5089878;28;20372;-85
2021/08/17 03:06:39;;;;;;;6.13;3.30;;;;;;;;;;5071832;28;20384;-87
2021/08/17 03:09:05;;;;;;;7.87;3.57;;;;;;;;;;5090045;28;20399;-85
2021/08/17 03:11:31;;;;;;;9.87;3.47;;;;;;;;;;5071748;28;20408;-84
2021/08/17 03:13:59;;;;;;;10.47;3.60;;;;;;;;;;5089660;28;20400;-85
2021/08/17 03:16:25;;;;;;;9.98;3.80;;;;;;;;;;5089533;28;20407;-88
2021/08/17 03:18:51;;;;;;;11.13;3.58;;;;;;;;;;5071818;28;20410;-80
2021/08/17 03:21:17;;;;;;;11.15;3.70;;;;;;;;;;5089546;28;20392;-83
2021/08/17 03:23:43;;;;;;;11.15;3.75;;;;;;;;;;5089533;28;20396;-80
2021/08/17 03:26:10;;;;;;;10.13;3.67;;;;;;;;;;5090192;28;20864;-86
2021/08/17 03:28:36;;;;;;;10.75;4.18;;;;;;;;;;5071219;28;21119;-84
2021/08/17 03:31:02;;;;;;;12.23;3.70;;;;;;;;;;5071271;28;20361;-84
2021/08/17 03:33:28;;;;;;;10.48;3.50;;;;;;;;;;5089733;28;20360;-88
2021/08/17 03:35:54;;;;;;;10.95;3.53;;;;;;;;;;5071203;28;20927;-87
2021/08/17 03:38:20;;;;;;;8.27;3.13;;;;;;;;;;5071352;28;20411;-85
2021/08/17 03:40:46;;;;;;;9.75;3.42;;;;;;;;;;5089619;28;20405;-87
2021/08/17 03:43:12;;;;;;;8.50;3.50;;;;;;;;;;5089760;28;20376;-84
2021/08/17 03:45:38;;;;;;;10.82;3.95;;;;;;;;;;5071517;28;20396;-85
2021/08/17 03:48:04;;;;;;;10.48;3.78;;;;;;;;;;5089477;28;20435;-87
2021/08/17 03:50:30;;;;;;;8.70;3.72;;;;;;;;;;5071220;28;20429;-86
2021/08/17 03:52:56;;;;;;;10.88;3.90;;;;;;;;;;5089633;28;20380;-85
2021/08/17 03:55:23;;;;;;;11.77;3.85;;;;;;;;;;5071365;28;20726;-80
2021/08/17 03:57:50;;;;;;;9.07;3.10;;;;;;;;;;5089522;28;20387;-82
2021/08/17 04:00:17;;;;;;;7.80;3.50;;;;;;;;;;5070934;28;20368;-79
2021/08/17 04:02:43;;;;;;;8.35;3.85;;;;;;;;;;5071232;28;20373;-82
2021/08/17 04:05:10;;;;;;;8.98;3.53;;;;;;;;;;5071123;28;20422;-82
2021/08/17 04:07:36;;;;;;;12.32;3.53;;;;;;;;;;5089220;28;20364;-82
2021/08/17 04:10:03;;;;;;;11.07;3.90;;;;;;;;;;5089115;28;20369;-83
2021/08/17 04:12:29;;;;;;;8.90;3.38;;;;;;;;;;5091155;28;20479;-83
2021/08/17 04:14:55;;;;;;;8.95;3.80;;;;;;;;;;5093674;28;20455;-81
2021/08/17 04:17:21;;;;;;;12.27;3.85;;;;;;;;;;5075076;28;20450;-84
2021/08/17 04:19:47;;;;;;;11.25;3.42;;;;;;;;;;5075485;28;20885;-81
2021/08/17 04:22:13;;;;;;;9.17;4.03;;;;;;;;;;5093743;28;20400;-81
2021/08/17 04:24:39;;;;;;;12.97;4.03;;;;;;;;;;5093299;28;20531;-82
2021/08/17 04:27:05;;;;;;;13.07;4.00;;;;;;;;;;5093341;28;20384;-81
2021/08/17 04:29:31;;;;;;;11.18;3.78;;;;;;;;;;5093284;28;20796;-84
2021/08/17 04:31:57;;;;;;;11.40;4.07;;;;;;;;;;5093639;28;20456;-85
2021/08/17 04:34:23;;;;;;;11.70;3.67;;;;;;;;;;5093326;28;20772;-80
2021/08/17 04:36:49;;;;;;;9.43;3.50;;;;;;;;;;5093320;28;20749;-83
2021/08/17 04:39:15;;;;;;;9.60;3.63;;;;;;;;;;5093443;28;20383;-78
2021/08/17 04:41:42;;;;;;;9.82;3.63;;;;;;;;;;5093281;28;20392;-81
2021/08/17 04:44:08;;;;;;;9.57;3.40;;;;;;;;;;5093672;28;20404;-83
2021/08/17 04:46:35;;;;;;;10.07;3.50;;;;;;;;;;5073470;28;20372;-84
2021/08/17 04:49:01;;;;;;;9.38;3.78;;;;;;;;;;5072986;28;20412;-85
2021/08/17 04:51:27;;;;;;;9.45;3.97;;;;;;;;;;5063175;28;20382;-81
2021/08/17 04:53:53;;;;;;;10.77;4.18;;;;;;;;;;5078235;28;20382;-82
2021/08/17 04:56:19;;;;;;;12.17;3.70;;;;;;;;;;5073075;28;20727;-81
2021/08/17 04:58:45;;;;;;;9.70;4.13;;;;;;;;;;5076056;28;20374;-80
2021/08/17 05:01:11;;;;;;;9.87;3.97;;;;;;;;;;5072360;28;20408;-82
2021/08/17 05:03:37;;;;;;;11.82;4.07;;;;;;;;;;5071992;28;20370;-80
2021/08/17 05:06:03;;;;;;;10.57;3.72;;;;;;;;;;5061870;28;20424;-84
2021/08/17 05:08:29;;;;;;;9.48;3.63;;;;;;;;;;5073060;28;20362;-81
2021/08/17 05:10:55;;;;;;;9.00;3.72;;;;;;;;;;5072550;28;20370;-84
2021/08/17 05:13:21;;;;;;;10.70;4.07;;;;;;;;;;5062501;28;20380;-83
2021/08/17 05:15:48;;;;;;;10.55;3.97;;;;;;;;;;5072131;28;20363;-84
2021/08/17 05:18:14;;;;;;;11.13;4.15;;;;;;;;;;5071632;28;20370;-83
2021/08/17 05:20:40;;;;;;;11.45;3.53;;;;;;;;;;5061784;28;20771;-88
2021/08/17 05:23:06;;;;;;;10.60;4.20;;;;;;;;;;5063673;28;20928;-83
2021/08/17 05:25:32;;;;;;;10.15;4.10;;;;;;;;;;5061726;28;20379;-85
2021/08/17 05:27:58;;;;;;;13.50;4.15;;;;;;;;;;5071842;28;20366;-81
2021/08/17 05:30:25;;;;;;;10.50;4.35;;;;;;;;;;5071176;28;20371;-82
2021/08/17 05:32:51;;;;;;;11.23;4.30;;;;;;;;;;5070739;28;20378;-84
2021/08/17 05:35:17;;;;;;;11.30;4.53;;;;;;;;;;5070439;28;20374;-82
2021/08/17 05:37:44;;;;;;;12.63;4.40;;;;;;;;;;5071031;28;20401;-82
2021/08/17 05:40:10;;;;;;;10.30;4.70;;;;;;;;;;5063156;28;20374;-84
2021/08/17 05:42:37;;;;;;;11.32;4.97;;;;;;;;;;5072648;28;20374;-83
2021/08/17 05:45:03;;;;;;;13.10;5.07;;;;;;;;;;5073638;28;20366;-84
2021/08/17 05:47:31;;;;;;;11.93;4.90;;;;;;;;;;5062589;28;20405;-82
2021/08/17 05:49:57;;;;;;;12.27;4.63;;;;;;;;;;5072287;28;20378;-82
2021/08/17 05:52:23;;;;;;;12.88;4.82;;;;;;;;;;5062387;28;20727;-82
2021/08/17 05:54:49;;;;;;;12.73;4.93;;;;;;;;;;5071899;28;20378;-82
2021/08/17 05:57:15;;;;;;;15.67;5.30;;;;;;;;;;5072105;28;20384;-84
2021/08/17 05:59:41;;;;;;;12.77;4.53;;;;;;;;;;5061429;28;20928;-83
2021/08/17 06:02:07;;;;;;;13.88;4.72;;;;;;;;;;5061512;28;20390;-82
2021/08/17 06:04:33;;;;;;;14.10;5.30;;;;;;;;;;5070619;28;20370;-80
2021/08/17 06:06:59;;;;;;;12.88;4.50;;;;;;;;;;5061211;28;20373;-81
2021/08/17 06:09:25;;;;;;;13.68;4.38;;;;;;;;;;5070286;28;20374;-79
2021/08/17 06:11:57;;;;;;;14.17;4.77;;;;;;;;;;5057869;28;20386;-84
2021/08/17 06:14:23;;;;;;;10.27;4.55;;;;;;;;;;5056885;28;20384;-84
2021/08/17 06:16:49;;;;;;;13.75;4.80;;;;;;;;;;5061615;28;20422;-83
2021/08/17 06:19:15;;;;;;;12.75;4.28;;;;;;;;;;5069864;28;20366;-83
2021/08/17 06:21:41;;;;;;;13.30;4.72;;;;;;;;;;5060152;28;20397;-84
2021/08/17 06:24:07;;;;;;;14.07;4.57;;;;;;;;;;5069976;28;20370;-83
2021/08/17 06:26:33;;;;;;;10.27;4.43;;;;;;;;;;5069899;28;20366;-86
2021/08/17 06:28:59;;;;;;;13.55;4.85;;;;;;;;;;5067119;28;20408;-82
2021/08/17 06:31:26;;;;;;;14.77;4.60;;;;;;;;;;5062642;28;20379;-84
2021/08/17 06:33:55;;;;;;;11.45;4.28;;;;;;;;;;5069824;28;20462;-81
2021/08/17 06:36:22;;;;;;;10.30;4.35;;;;;;;;;;5067605;28;20393;-86
2021/08/17 06:38:48;;;;;;;12.38;4.30;;;;;;;;;;5070913;28;20853;-80
2021/08/17 06:41:14;;;;;;;17.92;4.93;;;;;;;;;;5070242;28;20447;-82
2021/08/17 06:43:41;;;;;;;9.93;3.88;;;;;;;;;;5070711;28;20412;-81
2021/08/17 06:46:07;;;;;;;12.67;3.87;;;;;;;;;;5068913;28;20382;-85
2021/08/17 06:48:34;;;;;;;11.85;4.05;;;;;;;;;;5069611;28;20462;-80
2021/08/17 06:51:00;;;;;;;10.02;4.00;;;;;;;;;;5069415;28;20405;-84
2021/08/17 06:53:26;;;;;;;10.48;3.83;;;;;;;;;;5069309;28;20417;-83
2021/08/17 06:55:52;;;;;;;10.60;3.92;;;;;;;;;;5068584;28;20484;-81
2021/08/17 06:58:18;;;;;;;11.10;3.92;;;;;;;;;;5072353;28;20385;-82
2021/08/17 07:00:45;;;;;;;10.05;3.60;;;;;;;;;;5069017;28;20432;-81
2021/08/17 07:03:11;;;;;;;11.33;3.70;;;;;;;;;;5066428;28;20370;-81
2021/08/17 07:05:37;;;;;;;8.53;3.50;;;;;;;;;;5069424;28;20424;-83
2021/08/17 07:08:05;;;;;;;7.30;3.17;;;;;;;;;;5072084;28;20372;-81
2021/08/17 07:10:31;;;;;;;8.35;3.38;;;;;;;;;;5059340;28;20430;-81
2021/08/17 07:12:59;;;;;;;12.55;4.10;;;;;;;;;;5069792;28;20374;-82
2021/08/17 07:15:25;;;;;;;9.73;3.47;;;;;;;;;;5069185;28;20444;-82
2021/08/17 07:17:51;;;;;;;13.00;3.70;;;;;;;;;;5067372;28;20860;-81
2021/08/17 07:20:17;;;;;;;7.82;3.55;;;;;;;;;;5058436;28;20394;-81
2021/08/17 07:22:43;;;;;;;11.45;3.72;;;;;;;;;;5068844;28;20370;-84
2021/08/17 07:25:09;;;;;;;10.73;3.72;;;;;;;;;;5059391;28;20385;-81
2021/08/17 07:27:36;;;;;;;13.17;4.13;;;;;;;;;;5073352;28;20388;-82
2021/08/17 07:30:02;;;;;;;9.55;4.30;;;;;;;;;;5069329;28;20397;-79
2021/08/17 07:32:33;;;;;;;8.80;3.70;;;;;;;;;;5049118;28;20429;-85
2021/08/17 07:34:59;;;;;;;11.38;4.55;;;;;;;;;;5062019;28;20397;-80
2021/08/17 07:37:29;;;;;;;14.05;4.13;;;;;;;;;;5061935;28;21247;-82
2021/08/17 07:39:55;;;;;;;9.10;3.83;;;;;;;;;;5061236;28;20388;-82
2021/08/17 07:42:22;;;;;;;10.80;4.22;;;;;;;;;;5058803;28;21818;-83
2021/08/17 07:44:48;;;;;;;13.35;4.60;;;;;;;;;;5061785;28;20390;-81
2021/08/17 07:47:14;;;;;;;11.60;4.27;;;;;;;;;;5047334;28;20390;-82
2021/08/17 07:49:40;;;;;;;9.63;3.60;;;;;;;;;;5048384;28;20491;-84
2021/08/17 07:52:06;;;;;;;11.80;3.55;;;;;;;;;;5049904;28;22000;-82
2021/08/17 07:54:32;;;;;;;10.80;4.05;;;;;;;;;;5048065;28;20409;-82
2021/08/17 07:56:59;;;;;;;11.10;3.90;;;;;;;;;;5062067;28;20380;-82
2021/08/17 07:59:25;;;;;;;9.35;3.83;;;;;;;;;;5060248;28;20731;-83
2021/08/17 08:01:51;;;;;;;11.25;3.80;;;;;;;;;;5047427;28;20410;-82
2021/08/17 08:04:16;;;;;;;10.48;3.90;;;;;;;;;;5061554;28;20365;-83
2021/08/17 08:07:08;;;;;;;10.60;4.03;;;;;;;;;;5063081;28;20380;-82
2021/08/17 08:10:01;;;;;;;10.00;3.50;;;;;;;;;;5064717;28;20386;-81
2021/08/17 08:15:39;;;;;;;7.93;3.28;;;;;;;;;;5062177;28;21143;-83
2021/08/17 08:18:05;;;;;;;15.02;5.50;;;;;;;;;;5062494;28;20412;-82
2021/08/17 08:20:31;;;;;;;7.53;3.72;;;;;;;;;;5062574;28;20483;-82
2021/08/17 08:22:57;;;;;;;9.13;3.40;;;;;;;;;;5047593;28;20440;-82
2021/08/17 08:25:23;;;;;;;7.10;3.30;;;;;;;;;;5060219;28;20437;-84
2021/08/17 08:27:49;;;;;;;9.07;3.35;;;;;;;;;;5050715;28;20393;-82
2021/08/17 08:30:15;;;;;;;9.88;3.35;;;;;;;;;;5058776;28;20869;-83
2021/08/17 08:32:41;;;;;;;10.95;3.90;;;;;;;;;;5047885;28;20506;-82
2021/08/17 08:35:29;;;;;;;7.40;3.60;;;;;;;;;;5063498;28;20382;-87
2021/08/17 08:37:55;;;;;;;9.03;3.50;;;;;;;;;;5059142;28;20773;-82
2021/08/17 08:40:23;;;;;;;9.77;3.78;;;;;;;;;;5047628;28;20392;-83
2021/08/17 08:42:50;;;;;;;8.18;3.50;;;;;;;;;;5057532;28;20382;-81
2021/08/17 08:45:16;;;;;;;9.98;3.65;;;;;;;;;;5061309;28;20458;-85
2021/08/17 08:47:42;;;;;;;9.88;4.20;;;;;;;;;;5053836;28;20546;-80
2021/08/17 08:50:09;;;;;;;9.80;3.40;;;;;;;;;;5058304;28;20380;-85
2021/08/17 08:52:39;;;;;;;11.85;3.72;;;;;;;;;;5046756;28;20752;-83
2021/08/17 08:55:06;;;;;;;11.02;3.72;;;;;;;;;;5065284;28;20380;-84
2021/08/17 08:57:32;;;;;;;12.38;3.78;;;;;;;;;;5058207;28;20448;-82
2021/08/17 08:59:59;;;;;;;11.75;4.40;;;;;;;;;;5061542;28;20449;-85
2021/08/17 09:02:32;;;;;;;9.95;3.45;;;;;;;;;;5050666;28;20922;-84
2021/08/17 09:04:59;;;;;;;11.50;4.05;;;;;;;;;;5060927;28;20474;-85
2021/08/17 09:07:37;;;;;;;10.80;3.72;;;;;;;;;;5064460;28;20381;-85
2021/08/17 09:10:08;;;;;;;8.45;3.83;;;;;;;;;;5065733;28;20435;-81
2021/08/17 09:12:41;;;;;;;9.90;3.97;;;;;;;;;;5070926;28;20385;-82
2021/08/17 09:15:09;;;;;;;10.23;3.80;;;;;;;;;;5073281;28;20366;-79
2021/08/17 09:17:35;;;;;;;11.65;4.13;;;;;;;;;;5065713;28;20456;-85
2021/08/17 09:20:01;;;;;;;10.63;4.28;;;;;;;;;;5052954;28;20372;-81
2021/08/17 09:22:30;;;;;;;11.35;4.20;;;;;;;;;;5068813;28;20394;-79
2021/08/17 09:24:58;;;;;;;13.38;3.88;;;;;;;;;;5067963;28;20382;-80
2021/08/17 09:27:25;;;;;;;11.27;4.27;;;;;;;;;;5051329;28;20382;-83
2021/08/17 09:30:00;;;;;;;10.52;3.83;;;;;;;;;;5069315;28;20374;-86
2021/08/17 09:32:26;;;;;;;10.05;3.75;;;;;;;;;;5069547;28;20432;-82
2021/08/17 09:34:54;;;;;;;10.73;3.95;;;;;;;;;;5068464;28;20441;-86
2021/08/17 09:37:20;;;;;;;12.93;4.07;;;;;;;;;;5062527;28;20848;-83
2021/08/17 09:39:51;;;;;;;10.17;4.03;;;;;;;;;;5050453;28;20797;-82
2021/08/17 09:42:33;;;;;;;12.07;4.10;;;;;;;;;;5062399;28;20960;-85
2021/08/17 09:45:16;;;;;;;12.47;4.23;;;;;;;;;;5056380;28;20388;-82
2021/08/17 09:47:43;;;;;;;11.63;4.00;;;;;;;;;;5048875;28;20733;-84
2021/08/17 09:50:21;;;;;;;9.85;3.95;;;;;;;;;;5065030;28;20379;-84
2021/08/17 09:52:49;;;;;;;9.85;3.63;;;;;;;;;;5060861;28;20371;-83
2021/08/17 09:55:20;;;;;;;13.00;5.72;;;;;;;;;;5063264;28;20380;-82
2021/08/17 09:57:46;;;;;;;11.70;4.05;;;;;;;;;;5060204;28;20435;-81
2021/08/17 10:00:17;;;;;;;13.82;4.28;;;;;;;;;;5050365;28;20382;-80
2021/08/17 10:02:44;;;;;;;9.38;3.78;;;;;;;;;;5060360;28;20412;-85
2021/08/17 10:05:11;;;;;;;10.65;3.70;;;;;;;;;;5051763;28;20416;-82
2021/08/17 10:07:38;;;;;;;10.63;3.95;;;;;;;;;;5062113;28;20961;-82
2021/08/17 10:10:04;;;;;;;11.02;3.97;;;;;;;;;;5066213;28;20844;-82
2021/08/17 10:12:30;;;;;;;10.75;3.88;;;;;;;;;;5070142;28;20381;-81
2021/08/17 10:14:56;;;;;;;11.98;3.80;;;;;;;;;;5071097;28;20835;-80
2021/08/17 10:17:22;;;;;;;14.75;3.75;;;;;;;;;;5070677;28;20519;-80
2021/08/17 10:19:49;;;;;;;11.60;4.18;;;;;;;;;;5070628;28;20417;-85
2021/08/17 10:22:15;;;;;;;10.85;3.63;;;;;;;;;;5055049;28;20406;-78
2021/08/17 10:24:42;;;;;;;8.82;3.92;;;;;;;;;;5060321;28;20386;-83
2021/08/17 10:27:27;;;;;;;10.70;4.13;;;;;;;;;;5059442;28;20740;-80
2021/08/17 10:30:29;;;;;;;13.50;4.10;;;;;;;;;;5069267;28;20382;-83
2021/08/17 10:33:00;;;;;;;12.15;5.00;;;;;;;;;;4998269;28;20451;-79
2021/08/17 10:35:29;;;;;;;12.88;4.72;;;;;;;;;;5058500;28;20457;-81
2021/08/17 10:38:07;;;;;;;9.73;4.18;;;;;;;;;;5058097;28;20435;-81
2021/08/17 10:40:53;;;;;;;8.23;4.20;;;;;;;;;;5070114;28;20378;-80
2021/08/17 10:43:26;;;;;;;10.97;3.93;;;;;;;;;;5067379;28;20374;-81
2021/08/17 10:45:53;;;;;;;11.25;4.07;;;;;;;;;;5068810;28;20903;-78
2021/08/17 10:48:38;;;;;;;11.68;4.05;;;;;;;;;;5059237;28;20738;-81
2021/08/17 10:51:08;;;;;;;11.35;4.20;;;;;;;;;;5067125;28;20378;-78
2021/08/17 10:53:38;;;;;;;11.35;4.35;;;;;;;;;;5068812;28;20432;-81
2021/08/17 10:56:15;;;;;;;13.15;5.05;;;;;;;;;;5068885;28;20366;-80
2021/08/17 10:58:42;;;;;;;9.80;4.70;;;;;;;;;;5068670;28;20363;-83
2021/08/17 11:01:08;;;;;;;11.35;4.25;;;;;;;;;;5070008;28;20406;-78
2021/08/17 11:03:39;;;;;;;10.57;4.82;;;;;;;;;;5070174;28;20454;-81
2021/08/17 11:06:05;;;;;;;12.02;4.32;;;;;;;;;;5070166;28;20424;-79
2021/08/17 11:08:31;;;;;;;12.15;4.53;;;;;;;;;;5069777;28;20366;-83
2021/08/17 11:11:01;;;;;;;10.27;4.40;;;;;;;;;;5069474;28;20685;-82
2021/08/17 11:13:27;;;;;;;14.20;4.70;;;;;;;;;;5069690;28;20378;-82
2021/08/17 11:16:05;;;;;;;12.17;4.43;;;;;;;;;;5069448;28;21075;-84
2021/08/17 11:18:31;;;;;;;9.65;4.20;;;;;;;;;;5067584;28;20464;-82
2021/08/17 11:20:58;;;;;;;12.32;4.05;;;;;;;;;;5069665;28;20398;-82
2021/08/17 11:23:23;;;;;;;9.35;3.97;;;;;;;;;;5070047;28;20367;-83
2021/08/17 11:25:50;;;;;;;12.20;3.92;;;;;;;;;;5067444;28;20377;-78
2021/08/17 11:28:20;;;;;;;9.20;3.92;;;;;;;;;;5059947;28;20368;-83
2021/08/17 11:30:46;;;;;;;11.35;4.18;;;;;;;;;;5069488;28;20465;-81
2021/08/17 11:33:16;;;;;;;10.90;3.90;;;;;;;;;;5071426;28;20390;-81
2021/08/17 11:35:42;;;;;;;9.77;3.58;;;;;;;;;;5059374;28;20378;-80
2021/08/17 11:38:08;;;;;;;11.57;4.15;;;;;;;;;;5068415;28;20477;-81
2021/08/17 11:40:34;;;;;;;10.95;3.80;;;;;;;;;;5068209;28;20453;-82
2021/08/17 11:43:01;;;;;;;9.18;3.70;;;;;;;;;;5059877;28;21445;-86
2021/08/17 11:45:31;;;;;;;10.23;3.78;;;;;;;;;;5059326;28;20386;-82
2021/08/17 11:47:59;;;;;;;9.98;3.58;;;;;;;;;;5069451;28;20784;-81
2021/08/17 11:50:25;;;;;;;9.65;3.70;;;;;;;;;;5068750;28;20780;-81
2021/08/17 11:52:52;;;;;;;11.00;3.63;;;;;;;;;;5059208;28;20382;-83
2021/08/17 11:55:20;;;;;;;11.38;3.80;;;;;;;;;;5068282;28;20844;-81
2021/08/17 11:57:48;;;;;;;10.52;3.97;;;;;;;;;;5069129;28;20366;-78
2021/08/17 12:00:18;;;;;;;10.93;3.90;;;;;;;;;;5058563;28;20389;-83
2021/08/17 12:02:50;;;;;;;12.77;3.90;;;;;;;;;;5059429;28;20401;-81
2021/08/17 12:05:17;;;;;;;10.93;3.90;;;;;;;;;;5056751;28;20436;-81
2021/08/17 12:07:44;;;;;;;11.80;3.67;;;;;;;;;;5068597;28;20362;-82
2021/08/17 12:10:10;;;;;;;11.03;3.67;;;;;;;;;;5068306;28;20370;-80
2021/08/17 12:13:09;;;;;;;8.00;2.95;;;;;;;;;;5068676;28;20520;-81
2021/08/17 12:15:38;;;;;;;9.15;3.17;;;;;;;;;;5024348;28;20377;-79
2021/08/17 12:18:05;;;;;;;10.45;3.58;;;;;;;;;;5068008;28;20382;-82
2021/08/17 12:20:32;;;;;;;8.35;3.67;;;;;;;;;;5068002;28;20386;-83
2021/08/17 12:22:58;;;;;;;7.90;3.70;;;;;;;;;;5067480;28;20362;-85
2021/08/17 12:25:25;;;;;;;10.33;3.43;;;;;;;;;;5068661;28;20394;-79
2021/08/17 12:27:53;;;;;;;9.27;3.15;;;;;;;;;;5068438;28;20389;-82
2021/08/17 12:30:26;;;;;;;10.20;3.43;;;;;;;;;;5062385;28;21171;-83
2021/08/17 12:32:55;;;;;;;11.35;3.40;;;;;;;;;;5068717;28;20412;-82
2021/08/17 12:35:35;;;;;;;10.87;3.53;;;;;;;;;;5068792;28;20401;-78
2021/08/17 12:38:20;;;;;;;7.80;3.45;;;;;;;;;;5069901;28;20412;-83
2021/08/17 12:40:53;;;;;;;9.90;3.30;;;;;;;;;;5066569;28;20551;-81
2021/08/17 12:43:23;;;;;;;9.32;3.28;;;;;;;;;;5069463;28;20809;-85
2021/08/17 12:45:49;;;;;;;10.77;3.33;;;;;;;;;;5072065;28;20408;-83
2021/08/17 12:48:16;;;;;;;11.40;3.60;;;;;;;;;;5071959;28;20443;-83
2021/08/17 12:50:43;;;;;;;10.27;3.60;;;;;;;;;;5071291;28;20370;-84
2021/08/17 12:53:18;;;;;;;11.27;3.28;;;;;;;;;;5069581;28;20377;-81
2021/08/17 12:55:44;;;;;;;10.02;3.03;;;;;;;;;;5059802;28;20376;-81
2021/08/17 12:58:10;;;;;;;12.50;3.47;;;;;;;;;;5061239;28;20414;-82
2021/08/17 13:00:36;;;;;;;10.57;3.50;;;;;;;;;;5070325;28;20393;-84
2021/08/17 13:03:05;;;;;;;10.63;3.33;;;;;;;;;;5047880;28;21098;-86
2021/08/17 13:05:31;;;;;;;9.15;3.70;;;;;;;;;;5068352;28;20378;-82
2021/08/17 13:07:57;;;;;;;7.22;3.10;;;;;;;;;;5055878;28;20448;-82
2021/08/17 13:10:23;;;;;;;9.32;3.42;;;;;;;;;;5061004;28;20378;-83
2021/08/17 13:12:50;;;;;;;9.83;3.90;;;;;;;;;;5065123;28;20384;-86
2021/08/17 13:15:17;;;;;;;8.10;3.28;;;;;;;;;;5067173;28;20397;-83
2021/08/17 13:17:43;;;;;;;7.40;3.47;;;;;;;;;;5066804;28;20378;-83
2021/08/17 13:20:11;;;;;;;10.53;4.00;;;;;;;;;;5062954;28;20837;-84
2021/08/17 13:22:38;;;;;;;13.27;4.03;;;;;;;;;;5055031;28;20414;-84
2021/08/17 13:25:05;;;;;;;8.30;3.53;;;;;;;;;;5062766;28;20410;-81
2021/08/17 13:27:31;;;;;;;12.73;3.90;;;;;;;;;;5061361;28;20374;-87
2021/08/17 13:29:58;;;;;;;10.50;3.87;;;;;;;;;;5061994;28;20406;-83
2021/08/17 13:32:25;;;;;;;14.98;4.53;;;;;;;;;;5048449;28;20877;-81
2021/08/17 13:34:51;;;;;;;11.20;4.05;;;;;;;;;;5060537;28;20362;-85
2021/08/17 13:37:18;;;;;;;11.18;4.50;;;;;;;;;;5065452;28;20363;-83
2021/08/17 13:39:46;;;;;;;13.73;4.68;;;;;;;;;;5064907;28;20413;-84
2021/08/17 13:42:13;;;;;;;12.57;4.97;;;;;;;;;;5061735;28;20404;-84
2021/08/17 13:44:39;;;;;;;12.00;4.95;;;;;;;;;;5067554;28;20443;-84
2021/08/17 13:47:06;;;;;;;11.90;4.50;;;;;;;;;;5065395;28;20374;-79
2021/08/17 13:49:32;;;;;;;9.60;4.90;;;;;;;;;;5049997;28;20935;-83
2021/08/17 13:51:58;;;;;;;11.55;4.40;;;;;;;;;;5063063;28;20365;-80
2021/08/17 13:54:24;;;;;;;11.38;5.05;;;;;;;;;;5052644;28;20473;-86
2021/08/17 13:56:51;;;;;;;13.73;4.70;;;;;;;;;;5063589;28;20510;-88
2021/08/17 13:59:18;;;;;;;11.85;4.82;;;;;;;;;;5067529;28;20408;-86
2021/08/17 14:01:46;;;;;;;11.40;4.20;;;;;;;;;;5050493;28;20491;-88
2021/08/17 14:04:12;;;;;;;9.77;4.57;;;;;;;;;;5070342;28;20370;-82
2021/08/17 14:06:42;;;;;;;9.47;4.30;;;;;;;;;;5069811;28;20416;-84
2021/08/17 14:09:08;;;;;;;8.13;4.43;;;;;;;;;;5061166;28;20865;-85
2021/08/17 14:11:35;;;;;;;8.50;4.40;;;;;;;;;;5066271;28;20384;-84
2021/08/17 14:14:01;;;;;;;8.02;4.47;;;;;;;;;;5069211;28;20401;-82
2021/08/17 14:16:28;;;;;;;10.75;5.25;;;;;;;;;;5057222;28;20448;-82
2021/08/17 14:18:55;;;;;;;11.02;4.95;;;;;;;;;;5068795;28;20377;-85
2021/08/17 14:21:22;;;;;;;10.38;4.95;;;;;;;;;;5056462;28;20434;-84
2021/08/17 14:23:48;;;;;;;10.13;4.43;;;;;;;;;;5068584;28;20386;-80
2021/08/17 14:26:25;;;;;;;9.73;4.50;;;;;;;;;;5051064;28;20895;-86
2021/08/17 14:28:52;;;;;;;10.67;4.93;;;;;;;;;;5063180;28;20429;-82
2021/08/17 14:31:19;;;;;;;10.10;4.50;;;;;;;;;;5052709;28;20424;-84
2021/08/17 14:33:46;;;;;;;11.55;5.03;;;;;;;;;;5059721;28;20401;-85
2021/08/17 14:36:12;;;;;;;8.87;4.90;;;;;;;;;;5063793;28;20370;-85
2021/08/17 14:38:40;;;;;;;9.57;5.00;;;;;;;;;;5064669;28;20813;-84
2021/08/17 14:41:07;;;;;;;9.82;4.82;;;;;;;;;;5063053;28;20473;-85